Eborense — CSMP — position and weather

sailwx.info

Track history (hours):
 
Tides and Currents Weather Stations Pressure Air Temp Water Temp Dewpoint Dewpoint Depression Visibility Wind Speed Wind Dir Waves Ship Positions

Eborense

Last reported at 2015-Aug-28 14:33 UTC. Time now 2015-Aug-28 14:46 UTC.
Position N 38°42' W 009°12'.

Length 49 m; draft 1.2 m.

Type: Passenger vessel. MMSI: 263701750.

Date/timePositionNaut miles runAvg speedWind from/ knotsBaromVisibWave heightAir tempDewpointWater temp
2015-Aug-28 14:33N 38°42' W 009°12'1 1.0
2015-Aug-28 13:32N 38°41' W 009°12'1 1.0
2015-Aug-28 12:31N 38°42' W 009°12'0 0.0
2015-Aug-28 11:32N 38°42' W 009°12'0 0.0
2015-Aug-28 10:32N 38°42' W 009°12'2 1.9
2015-Aug-28 09:32N 38°40' W 009°14'0 0.0
2015-Aug-28 08:32N 38°41' W 009°14'0 0.0
2015-Aug-28 07:28N 38°40' W 009°14'0 0.2
2015-Aug-28 06:33N 38°41' W 009°14'1 0.9
2015-Aug-28 05:29N 38°41' W 009°12'1 0.0
2015-Aug-27 14:06N 38°41' W 009°13'1 1.1
2015-Aug-27 13:33N 38°41' W 009°12'1 1.0
2015-Aug-27 12:31N 38°42' W 009°12'0 0.0
2015-Aug-27 11:31N 38°42' W 009°12'0 0.2
2015-Aug-27 10:33N 38°41' W 009°12'2 1.7
2015-Aug-27 09:33N 38°40' W 009°14'0 0.0
2015-Aug-27 08:33N 38°41' W 009°14'0 0.0
2015-Aug-27 07:33N 38°41' W 009°14'2 1.4
2015-Aug-27 06:08N 38°42' W 009°12'1 2.2
2015-Aug-27 05:32N 38°41' W 009°13'0 0.0
2015-Aug-26 21:33N 38°41' W 009°12'1 1.0
2015-Aug-26 20:23N 38°40' W 009°14'0 0.4
2015-Aug-26 19:33N 38°41' W 009°13'2 1.6
2015-Aug-26 18:31N 38°42' W 009°12'0 0.0
2015-Aug-26 17:31N 38°42' W 009°12'0 0.1
2015-Aug-26 16:33N 38°42' W 009°12'0 0.1
2015-Aug-26 15:32N 38°42' W 009°12'0 0.2
2015-Aug-26 14:33N 38°42' W 009°12'1 0.9
2015-Aug-26 13:33N 38°41' W 009°12'1 0.8
2015-Aug-26 12:33N 38°41' W 009°12'0 0.1
2015-Aug-26 11:34N 38°42' W 009°12'0 0.2
2015-Aug-26 10:32N 38°42' W 009°12'2 1.9
2015-Aug-26 09:33N 38°41' W 009°14'0 0.4
2015-Aug-26 08:33N 38°41' W 009°13'0 0.0
2015-Aug-26 07:33N 38°41' W 009°13'0 0.4
2015-Aug-26 06:32N 38°41' W 009°14'1 1.1
2015-Aug-26 05:33N 38°42' W 009°14'1 0.0
2015-Aug-24 21:32N 38°41' W 009°12'1 1.0
2015-Aug-24 20:33N 38°41' W 009°14'0 0.2
2015-Aug-24 19:31N 38°40' W 009°14'2 1.9
2015-Aug-24 18:31N 38°42' W 009°12'0 0.0
2015-Aug-24 17:33N 38°42' W 009°12'0 0.0
2015-Aug-24 16:32N 38°42' W 009°12'0 0.2
2015-Aug-24 15:33N 38°42' W 009°12'1 0.6
2015-Aug-24 14:28N 38°41' W 009°13'3 3.1
2015-Aug-24 13:31N 38°41' W 009°09'0 0.1
2015-Aug-24 10:34N 38°42' W 009°09'0 0.2
2015-Aug-24 09:33N 38°41' W 009°09'0 0.1
2015-Aug-24 08:33N 38°41' W 009°09'1 0.1
2015-Aug-23 15:08N 38°42' W 009°09'0 0.0
2015-Aug-23 14:34N 38°42' W 009°09'0 0.0
2015-Aug-23 13:34N 38°42' W 009°09'0 0.0
2015-Aug-23 12:32N 38°42' W 009°09'0 0.1
2015-Aug-23 11:33N 38°42' W 009°09'1 1.0
2015-Aug-23 10:33N 38°41' W 009°09'0 0.0
2015-Aug-21 07:32N 38°41' W 009°09'4 4.2
2015-Aug-21 06:33N 38°40' W 009°14'1 1.1
2015-Aug-21 05:30N 38°41' W 009°12'0 0.0
2015-Aug-20 21:33N 38°41' W 009°12'1 1.1
2015-Aug-20 20:32N 38°41' W 009°14'0 0.0
2015-Aug-20 19:32N 38°41' W 009°14'2 1.9
2015-Aug-20 18:33N 38°41' W 009°12'0 0.2
2015-Aug-20 17:33N 38°42' W 009°12'0 0.0
2015-Aug-20 16:32N 38°42' W 009°12'0 0.0
2015-Aug-20 15:31N 38°42' W 009°12'0 0.0
2015-Aug-20 14:32N 38°42' W 009°12'1 1.0
2015-Aug-20 13:29N 38°41' W 009°12'1 1.0
2015-Aug-20 12:23N 38°42' W 009°12'0 0.0
2015-Aug-20 11:32N 38°42' W 009°12'0 0.0
2015-Aug-20 10:32N 38°42' W 009°12'2 1.9
2015-Aug-20 09:32N 38°40' W 009°14'0 0.0
2015-Aug-20 08:32N 38°40' W 009°14'0 0.1
2015-Aug-20 07:32N 38°41' W 009°14'0 0.0
2015-Aug-20 06:32N 38°41' W 009°14'1 1.1
2015-Aug-20 05:33N 38°41' W 009°12'0 0.0
2015-Aug-19 21:33N 38°41' W 009°12'1 1.0
2015-Aug-19 20:33N 38°41' W 009°14'0 0.1
2015-Aug-19 19:34N 38°41' W 009°14'2 1.7
2015-Aug-19 18:30N 38°42' W 009°12'0 0.0
2015-Aug-19 17:33N 38°42' W 009°12'0 0.0
2015-Aug-19 14:30N 38°42' W 009°12'1 1.1
2015-Aug-19 13:33N 38°41' W 009°12'1 1.1
2015-Aug-19 12:33N 38°42' W 009°12'0 0.0
2015-Aug-19 11:32N 38°42' W 009°12'0 0.0
2015-Aug-19 10:31N 38°42' W 009°12'2 2.0
2015-Aug-19 09:33N 38°40' W 009°14'0 0.0
2015-Aug-19 08:33N 38°41' W 009°14'0 0.0
2015-Aug-19 07:31N 38°40' W 009°14'0 0.2
2015-Aug-19 06:33N 38°41' W 009°14'1 0.9
2015-Aug-19 05:33N 38°41' W 009°13'  
Track history (hours):
 
Tides and Currents Weather Stations Pressure Air Temp Water Temp Dewpoint Dewpoint Depression Visibility Wind Speed Wind Dir Waves Ship Positions

Eborense

Last reported at 2015-Aug-28 14:33 UTC. Time now 2015-Aug-28 14:46 UTC.
Position N 38°42' W 009°12'.

Length 49 m; draft 1.2 m.

Type: Passenger vessel. MMSI: 263701750.

Date/timePositionNaut miles runAvg speedWind from/ knotsBaromVisibWave heightAir tempDewpointWater temp
2015-Aug-28 14:33N 38°42' W 009°12'1 1.0
2015-Aug-28 13:32N 38°41' W 009°12'1 1.0
2015-Aug-28 12:31N 38°42' W 009°12'0 0.0
2015-Aug-28 11:32N 38°42' W 009°12'0 0.0
2015-Aug-28 10:32N 38°42' W 009°12'2 1.9
2015-Aug-28 09:32N 38°40' W 009°14'0 0.0
2015-Aug-28 08:32N 38°41' W 009°14'0 0.0
2015-Aug-28 07:28N 38°40' W 009°14'0 0.2
2015-Aug-28 06:33N 38°41' W 009°14'1 0.9
2015-Aug-28 05:29N 38°41' W 009°12'1 0.0
2015-Aug-27 14:06N 38°41' W 009°13'1 1.1
2015-Aug-27 13:33N 38°41' W 009°12'1 1.0
2015-Aug-27 12:31N 38°42' W 009°12'0 0.0
2015-Aug-27 11:31N 38°42' W 009°12'0 0.2
2015-Aug-27 10:33N 38°41' W 009°12'2 1.7
2015-Aug-27 09:33N 38°40' W 009°14'0 0.0
2015-Aug-27 08:33N 38°41' W 009°14'0 0.0
2015-Aug-27 07:33N 38°41' W 009°14'2 1.4
2015-Aug-27 06:08N 38°42' W 009°12'1 2.2
2015-Aug-27 05:32N 38°41' W 009°13'0 0.0
2015-Aug-26 21:33N 38°41' W 009°12'1 1.0
2015-Aug-26 20:23N 38°40' W 009°14'0 0.4
2015-Aug-26 19:33N 38°41' W 009°13'2 1.6
2015-Aug-26 18:31N 38°42' W 009°12'0 0.0
2015-Aug-26 17:31N 38°42' W 009°12'0 0.1
2015-Aug-26 16:33N 38°42' W 009°12'0 0.1
2015-Aug-26 15:32N 38°42' W 009°12'0 0.2
2015-Aug-26 14:33N 38°42' W 009°12'1 0.9
2015-Aug-26 13:33N 38°41' W 009°12'1 0.8
2015-Aug-26 12:33N 38°41' W 009°12'0 0.1
2015-Aug-26 11:34N 38°42' W 009°12'0 0.2
2015-Aug-26 10:32N 38°42' W 009°12'2 1.9
2015-Aug-26 09:33N 38°41' W 009°14'0 0.4
2015-Aug-26 08:33N 38°41' W 009°13'0 0.0
2015-Aug-26 07:33N 38°41' W 009°13'0 0.4
2015-Aug-26 06:32N 38°41' W 009°14'1 1.1
2015-Aug-26 05:33N 38°42' W 009°14'1 0.0
2015-Aug-24 21:32N 38°41' W 009°12'1 1.0
2015-Aug-24 20:33N 38°41' W 009°14'0 0.2
2015-Aug-24 19:31N 38°40' W 009°14'2 1.9
2015-Aug-24 18:31N 38°42' W 009°12'0 0.0
2015-Aug-24 17:33N 38°42' W 009°12'0 0.0
2015-Aug-24 16:32N 38°42' W 009°12'0 0.2
2015-Aug-24 15:33N 38°42' W 009°12'1 0.6
2015-Aug-24 14:28N 38°41' W 009°13'3 3.1
2015-Aug-24 13:31N 38°41' W 009°09'0 0.1
2015-Aug-24 10:34N 38°42' W 009°09'0 0.2
2015-Aug-24 09:33N 38°41' W 009°09'0 0.1
2015-Aug-24 08:33N 38°41' W 009°09'1 0.1
2015-Aug-23 15:08N 38°42' W 009°09'0 0.0
2015-Aug-23 14:34N 38°42' W 009°09'0 0.0
2015-Aug-23 13:34N 38°42' W 009°09'0 0.0
2015-Aug-23 12:32N 38°42' W 009°09'0 0.1
2015-Aug-23 11:33N 38°42' W 009°09'1 1.0
2015-Aug-23 10:33N 38°41' W 009°09'0 0.0
2015-Aug-21 07:32N 38°41' W 009°09'4 4.2
2015-Aug-21 06:33N 38°40' W 009°14'1 1.1
2015-Aug-21 05:30N 38°41' W 009°12'0 0.0
2015-Aug-20 21:33N 38°41' W 009°12'1 1.1
2015-Aug-20 20:32N 38°41' W 009°14'0 0.0
2015-Aug-20 19:32N 38°41' W 009°14'2 1.9
2015-Aug-20 18:33N 38°41' W 009°12'0 0.2
2015-Aug-20 17:33N 38°42' W 009°12'0 0.0
2015-Aug-20 16:32N 38°42' W 009°12'0 0.0
2015-Aug-20 15:31N 38°42' W 009°12'0 0.0
2015-Aug-20 14:32N 38°42' W 009°12'1 1.0
2015-Aug-20 13:29N 38°41' W 009°12'1 1.0
2015-Aug-20 12:23N 38°42' W 009°12'0 0.0
2015-Aug-20 11:32N 38°42' W 009°12'0 0.0
2015-Aug-20 10:32N 38°42' W 009°12'2 1.9
2015-Aug-20 09:32N 38°40' W 009°14'0 0.0
2015-Aug-20 08:32N 38°40' W 009°14'0 0.1
2015-Aug-20 07:32N 38°41' W 009°14'0 0.0
2015-Aug-20 06:32N 38°41' W 009°14'1 1.1
2015-Aug-20 05:33N 38°41' W 009°12'0 0.0
2015-Aug-19 21:33N 38°41' W 009°12'1 1.0
2015-Aug-19 20:33N 38°41' W 009°14'0 0.1
2015-Aug-19 19:34N 38°41' W 009°14'2 1.7
2015-Aug-19 18:30N 38°42' W 009°12'0 0.0
2015-Aug-19 17:33N 38°42' W 009°12'0 0.0
2015-Aug-19 14:30N 38°42' W 009°12'1 1.1
2015-Aug-19 13:33N 38°41' W 009°12'1 1.1
2015-Aug-19 12:33N 38°42' W 009°12'0 0.0
2015-Aug-19 11:32N 38°42' W 009°12'0 0.0
2015-Aug-19 10:31N 38°42' W 009°12'2 2.0
2015-Aug-19 09:33N 38°40' W 009°14'0 0.0
2015-Aug-19 08:33N 38°41' W 009°14'0 0.0
2015-Aug-19 07:31N 38°40' W 009°14'0 0.2
2015-Aug-19 06:33N 38°41' W 009°14'1 0.9
2015-Aug-19 05:33N 38°41' W 009°13'  

Dump ship's entire track history